Nearby METAR Reports

 

KPBH - Phillips, Wisconsin, USA
Distance from station: SE 13mi, 21km
Updated: 09/21/2018 4:35pm
Overcast
Overcast
 Wind from N
Wind: N 12 mph , 19 km/h
Temperature: 48°F , 9°C
Wind Chill: 43°F , 6°C
Dew Point: 41°F , 5°C
Humidity: 76%
Barometer: 30.14 inHg , 1020.7 hPa
Clouds: Overcast
Visibility: 10 miles , 16 km
Cloud details: Mostly cloudy 2900 ft
Overcast 3600 ft
2018/09/21 21:35 KPBH 212135Z AUTO 36010KT 10SM BKN029 OVC036 09/05 A3014 RMK AO2 T00940048
KRCX - Ladysmith/Rusk, Wisconsin, USA
Distance from station: SW 29mi, 46km
Updated: 09/21/2018 4:35pm
Partly cloudy
Partly cloudy
 
Temperature: 54°F , 12°C
Dew Point: 39°F , 4°C
Humidity: 58%
Barometer: 30.17 inHg , 1021.7 hPa
Clouds: Partly cloudy
Visibility: 10 miles , 16 km
Cloud details: Partly cloudy 3800 ft
Partly cloudy 4400 ft
2018/09/21 21:35 KRCX 212135Z AUTO 10SM SCT038 SCT044 12/04 A3017 RMK AO2 T01160042
 
KD25 - Manitowish Water, Wisconsin, USA
Distance from station: ENE 41mi, 66km
Updated: 09/21/2018 4:15pm
Overcast
Overcast
 Wind from NW
Wind: NW 13 mph , 20 km/h, Gust: 21 mph , 33 km/h
Temperature: 46°F , 8°C
Wind Chill: 40°F , 4°C
Dew Point: 45°F , 7°C
Humidity: 93%
Barometer: 30.11 inHg , 1019.6 hPa
Clouds: Overcast
Visibility: 10 miles , 16 km
Cloud details: Overcast 1800 ft
2018/09/21 21:15 KD25 212115Z AUTO 32011G18KT 10SM OVC018 08/07 A3011 RMK AO2 T00810067
KHYR - Hayward, Wisconsin, USA
Distance from station: WNW 42mi, 68km
Updated: 09/21/2018 3:53pm
Partly cloudy
Partly cloudy
 Wind from N
Wind: N 14 mph , 22 km/h, Gust: 23 mph , 37 km/h
Temperature: 54°F , 12°C
Dew Point: 39°F , 4°C
Humidity: 58%
Barometer: 30.16 inHg , 1021.3 hPa
Clouds: Partly cloudy
Visibility: 10 miles , 16 km
Cloud details: Partly cloudy 3700 ft
2018/09/21 20:53 KHYR 212053Z AUTO 01012G20KT 10SM SCT037 12/04 A3016 RMK AO2 SLP217 T01170044 51037
 
KARV - Minocqua/Woodruf, Wisconsin, USA
Distance from station: E 44mi, 71km
Updated: 09/21/2018 4:15pm
Overcast
Overcast
 Wind from NNW
Wind: NNW 13 mph , 20 km/h, Gust: 28 mph , 44 km/h
Temperature: 50°F , 10°C
Wind Chill: 45°F , 7°C
Dew Point: 45°F , 7°C
Humidity: 82%
Barometer: 30.11 inHg , 1019.6 hPa
Clouds: Overcast
Visibility: 10 miles , 16 km
Cloud details: Mostly cloudy 2100 ft
Overcast 2700 ft
2018/09/21 21:15 KARV 212115Z AUTO 34011G24KT 10SM BKN021 OVC027 10/07 A3011 RMK AO2 T00950065
KTKV - Tomahawk Regnl, Wisconsin, USA
Distance from station: ESE 46mi, 74km
Updated: 09/21/2018 4:15pm
Overcast
Overcast
 Wind from NW
Wind: NW 14 mph , 22 km/h, Gust: 24 mph , 39 km/h
Temperature: 48°F , 9°C
Wind Chill: 42°F , 6°C
Dew Point: 39°F , 4°C
Humidity: 71%
Barometer: 30.12 inHg , 1020 hPa
Clouds: Overcast
Visibility: 10 miles , 16 km
Cloud details: Partly cloudy 2600 ft
Mostly cloudy 3000 ft
Overcast 4400 ft
2018/09/21 21:15 KTKV 212115Z AUTO 32012G21KT 10SM SCT026 BKN030 OVC044 09/04 A3012 RMK AO2 T00890039